• Join FlightAware (Why Join?)
  • Login
  • US Flag 
10:27AM EDT


 

Airport Tracker/Info


-or-


 

Live Flight TrackerFlight Track Log ✈ UAL25 ✈ 10-Nov-2013 ✈ KEWR - EINN / SNN

Flight Track Log - Related Links

Times and Time Zones

All times are in EST time to prevent confusion due to time zone crossing. See the UAL25 flight status page for this flight to view local times or setup timezone preferences in your user account.

Time Position Orientation Groundspeed Altitude Reporting Facility
EST Latitude Longitude Course Direction KTS MPH feet Rate Location/Type
07:41PM 40.6965 -74.1689 143° Southeast 86 99  Level FlightAware ADS-B
07:42PM 40.6783 -74.1801 205° Southwest 166 191 300 840 Climbing FlightAware ADS-B
07:42PM 40.6757 -74.1816 204° Southwest 169 194 500 3,000 Climbing FlightAware ADS-B
07:42PM 40.6699 -74.1840 197° South 170 196 900 3,000 Climbing FlightAware ADS-B
07:42PM 40.6667 -74.1849 192° South 172 198 1,100 2,400 Climbing FlightAware ADS-B
07:42PM 40.6578 -74.1847 179° South 182 209 1,500 1,800 Climbing FlightAware ADS-B
07:43PM 40.6446 -74.1866 186° South 190 219 1,900 1,500 Climbing FlightAware ADS-B
07:43PM 40.6405 -74.1888 202° Southwest 195 224 2,000 1,920 Climbing FlightAware ADS-B
07:43PM 40.6240 -74.2180 233° Southwest 191 220 3,200 2,100 Climbing FlightAware
07:44PM 40.6340 -74.2417 299° West 199 229 4,000 1,980 Climbing FlightAware ADS-B
07:44PM 40.6384 -74.2449 331° Northwest 223 257 4,100 2,160 Climbing FlightAware ADS-B
07:44PM 40.6444 -74.2474 342° North 234 269 4,400 3,000 Climbing FlightAware ADS-B
07:44PM 40.6609 -74.2462 North 239 275 5,100 2,160 Climbing FlightAware ADS-B
07:44PM 40.6856 -74.2281 29° Northeast 266 306 5,800 2,640 Climbing FlightAware ADS-B
07:45PM 40.7254 -74.1871 38° Northeast 268 308 8,000 3,180 Climbing FlightAware ADS-B
07:45PM 40.7404 -74.1709 39° Northeast 268 308 8,800 2,880 Climbing FlightAware ADS-B
07:46PM 40.7555 -74.1553 38° Northeast 273 314 9,500 1,860 Climbing FlightAware ADS-B
07:46PM 40.7721 -74.1391 36° Northeast 279 321 9,800 600 Climbing FlightAware ADS-B
07:46PM 40.7972 -74.1130 38° Northeast 339 390 9,900 180 Climbing FlightAware ADS-B
07:46PM 40.8017 -74.1063 48° Northeast 350 403 9,900 1,320 Level FlightAware ADS-B
07:47PM 40.8223 -74.0616 59° Northeast 368 423 10,500 1,980 Climbing FlightAware ADS-B
07:47PM 40.8453 -73.9996 64° Northeast 380 437 11,700 1,260 Climbing FlightAware ADS-B
07:48PM 40.8709 -73.9296 64° Northeast 382 440 11,900 1,080 Climbing FlightAware ADS-B
07:48PM 40.8902 -73.8771 64° Northeast 378 435 12,800 2,100 Climbing FlightAware ADS-B (KSNC)
07:49PM 40.9138 -73.8130 64° Northeast 393 452 13,900 2,160 Climbing FlightAware ADS-B (KSNC)
07:49PM 40.9582 -73.7203 58° Northeast 399 459 15,600 2,160 Climbing FlightAware ADS-B (KSNC)
07:50PM 40.9929 -73.6708 47° Northeast 407 468 16,700 2,100 Climbing FlightAware ADS-B (KSNC)
07:51PM 41.0430 -73.6020 46° Northeast 415 478 18,000 2,160 Climbing FlightAware
07:51PM 41.0674 -73.5691 45° Northeast 420 483 18,700 1,920 Climbing FlightAware ADS-B (KSNC)
07:51PM 41.1120 -73.5084 46° Northeast 434 499 19,600 1,920 Climbing FlightAware ADS-B (KSNC)
07:52PM 41.1644 -73.4369 46° Northeast 443 510 20,900 1,920 Climbing FlightAware ADS-B (KSNC)
07:53PM 41.2145 -73.3683 46° Northeast 451 519 21,900 1,860 Climbing FlightAware ADS-B (KSNC)
07:53PM 41.2579 -73.3090 46° Northeast 457 526 22,900 1,800 Climbing FlightAware ADS-B (KSNC)
07:54PM 41.3144 -73.2314 46° Northeast 463 533 24,000 1,740 Climbing FlightAware ADS-B (KSNC)
07:54PM 41.3726 -73.1478 47° Northeast 476 548 25,200 1,560 Climbing FlightAware ADS-B (KSNC)
07:55PM 41.4224 -73.0493 56° Northeast 497 572 26,100 1,260 Climbing FlightAware ADS-B (KSNC)
07:56PM 41.4592 -72.9661 59° Northeast 509 586 26,700 1,320 Climbing FlightAware ADS-B (KSNC)
07:56PM 41.4866 -72.8902 64° Northeast 531 611 27,400 1,500 Climbing FlightAware ADS-B (KSNC)
07:57PM 41.5036 -72.7911 77° East 539 620 28,100 1,260 Climbing FlightAware ADS-B (KSNC)
07:57PM 41.5197 -72.6926 78° East 546 628 28,700 1,140 Climbing FlightAware ADS-B (KSNC)
07:58PM 41.5412 -72.5721 77° East 554 638 29,400 1,380 Climbing FlightAware ADS-B (KSNC)
07:58PM 41.5573 -72.4710 78° East 549 632 30,300 1,740 Climbing FlightAware ADS-B (KSNC)
07:59PM 41.5721 -72.3678 79° East 550 633 31,400 1,440 Climbing FlightAware ADS-B
07:59PM 41.5894 -72.2440 79° East 554 638 32,000 1,260 Climbing FlightAware ADS-B
08:00PM 41.6037 -72.1414 79° East 551 634 32,800 1,500 Climbing FlightAware ADS-B
08:00PM 41.6181 -72.0315 80° East 553 636 33,600 1,440 Climbing FlightAware ADS-B (KOWD)
08:01PM 41.6190 -71.9313 89° East 555 639 34,300 1,200 Climbing FlightAware ADS-B (KOWD)
08:01PM 41.6171 -71.8133 91° East 556 640 34,900 600 Climbing FlightAware ADS-B (KOWD)
08:02PM 41.6152 -71.7115 91° East 561 646 35,000 60 Climbing FlightAware ADS-B
08:03PM 41.6126 -71.5299 91° East 569 655 35,000  Level FlightAware ADS-B (KOWD)
08:03PM 41.6157 -71.4415 87° East 569 655 35,000  Level FlightAware ADS-B
08:04PM 41.6207 -71.3760 84° East 568 654 35,000  Level FlightAware ADS-B
08:04PM 41.6353 -71.2606 80° East 569 655 35,000  Level FlightAware ADS-B
08:05PM 41.6521 -71.1477 79° East 568 654 35,000  Level FlightAware ADS-B
08:05PM 41.6705 -71.0196 79° East 561 646 35,000  Level FlightAware ADS-B
08:06PM 41.6849 -70.9180 79° East 556 640 35,000  Level FlightAware ADS-B
08:06PM 41.7008 -70.8071 79° East 552 635 35,000  Level FlightAware ADS-B (KOWD)
08:07PM 41.7130 -70.7224 79° East 547 629 35,000  Level FlightAware ADS-B (KBOS)
08:07PM 41.7355 -70.5676 79° East 544 626 35,000  Level FlightAware ADS-B (KOWD)
08:08PM 41.7400 -70.5372 79° East 543 625 35,000  Level FlightAware ADS-B
08:09PM 41.7652 -70.3635 79° East 545 627 35,000  Level FlightAware ADS-B (KBOS)
08:09PM 41.7774 -70.2789 79° East 543 625 35,000  Level FlightAware ADS-B
08:10PM 41.7935 -70.1658 79° East 549 632 35,000  Level FlightAware ADS-B
08:10PM 41.8083 -70.0615 79° East 551 634 35,000  Level FlightAware ADS-B
08:11PM 41.8225 -69.9603 79° East 554 638 35,000  Level FlightAware ADS-B (KBOS)
08:11PM 41.8385 -69.8456 79° East 554 638 35,000  Level FlightAware ADS-B (KBOS)
08:12PM 41.8490 -69.7701 79° East 558 642 35,000  Level FlightAware ADS-B (KBOS)
08:13PM 41.8840 -69.5140 80° East 558 642 35,000  Level FlightAware
08:13PM 41.8916 -69.4566 80° East 559 643 35,000  Level FlightAware ADS-B
08:14PM 41.9050 -69.3580 80° East 559 643 35,000  Level FlightAware
08:14PM 41.9310 -69.1610 80° East 559 643 35,000  Level FlightAware
08:15PM 41.9420 -69.0767 80° East 559 643 35,000  Level FlightAware ADS-B (KBOS)
08:15PM 41.9556 -68.9729 80° East 559 643 35,000  Level FlightAware ADS-B (KBOS)
08:17PM 41.9863 -68.7362 80° East 558 642 35,000  Level FlightAware ADS-B (KBOS)
08:17PM 41.9999 -68.6302 80° East 559 643 35,000  Level FlightAware ADS-B (KBOS)
08:18PM 42.0093 -68.5564 80° East 560 644 35,000  Level FlightAware ADS-B (KBOS)
08:18PM 42.0259 -68.4251 80° East 559 643 35,000  Level FlightAware ADS-B (KBOS)
08:19PM 42.0412 -68.3012 80° East 560 644 35,000  Level FlightAware ADS-B (CYQI)
08:19PM 42.0560 -68.1829 80° East 559 643 35,000  Level FlightAware ADS-B (KBOS)
08:20PM 42.0663 -68.0981 81° East 559 643 35,000  Level FlightAware ADS-B (CYQI)
08:20PM 42.0845 -67.9496 81° East 558 642 35,000  Level FlightAware ADS-B (CYQI)
08:21PM 42.0987 -67.8320 81° East 558 642 35,000  Level FlightAware ADS-B (CYQI)
08:22PM 42.1130 -67.7124 81° East 557 641 35,000  Level FlightAware ADS-B (KBOS)
08:22PM 42.1274 -67.5906 81° East 558 642 35,000  Level FlightAware ADS-B (CYQI)
08:23PM 42.1443 -67.4487 81° East 560 644 35,000  Level FlightAware ADS-B (CYQI)
08:24PM 42.1570 -67.3400 81° East 555 639 35,000  Level FlightAware
08:24PM 42.1834 -67.1090 81° East 561 646 35,000  Level FlightAware ADS-B (CYQI)
08:25PM 42.1998 -67.0013 78° East 558 642 35,000  Level FlightAware ADS-B (CYQI)
08:26PM 42.2299 -66.8870 70° East 556 640 35,000  Level FlightAware ADS-B (CYQI)
08:26PM 42.2572 -66.7974 68° East 555 639 35,000  Level FlightAware ADS-B (CYQI)
08:27PM 42.2929 -66.6829 67° East 554 638 35,000  Level FlightAware ADS-B (CYQI)
08:27PM 42.3343 -66.5501 67° East 553 636 35,000  Level FlightAware ADS-B (CYQI)
08:28PM 42.3640 -66.4540 67° East 553 636 35,000  Level FlightAware ADS-B (CYQI)
08:28PM 42.3909 -66.3667 67° East 554 638 35,000  Level FlightAware ADS-B (CYQI)
08:29PM 42.4249 -66.2561 67° East 555 639 35,000  Level FlightAware ADS-B (CYQI)
08:29PM 42.4494 -66.1760 67° East 556 640 35,000  Level FlightAware ADS-B (CYQI)
08:30PM 42.4834 -66.0637 68° East 555 639 35,000  Level FlightAware ADS-B (CYQI)
08:31PM 42.5315 -65.9046 68° East 556 640 35,000  Level FlightAware ADS-B (CYQI)
08:31PM 42.5622 -65.8023 68° East 556 640 35,000  Level FlightAware ADS-B (CYQI)
08:32PM 42.5856 -65.7242 68° East 555 639 35,000  Level FlightAware ADS-B (CYQI)
08:32PM 42.6204 -65.6075 68° East 555 639 35,000  Level FlightAware ADS-B (CYQI)
08:33PM 42.6542 -65.4935 68° East 555 639 35,000  Level FlightAware ADS-B (CYQI)
08:33PM 42.6836 -65.3941 68° East 555 639 35,000  Level FlightAware ADS-B (CYQI)
08:34PM 42.7104 -65.3036 68° East 556 640 35,000  Level FlightAware ADS-B (CYQI)
08:34PM 42.7452 -65.1850 68° East 557 641 35,000  Level FlightAware ADS-B (CYQI)
08:35PM 42.7804 -65.0655 68° East 558 642 35,000  Level FlightAware ADS-B (CYQI)
08:36PM 42.8108 -64.9607 68° East 557 641 35,000  Level FlightAware ADS-B (CYQI)
08:36PM 42.8412 -64.8559 68° East 556 640 35,000  Level FlightAware ADS-B (CYQI)
08:37PM 42.8856 -64.7016 68° East 555 639 35,000  Level FlightAware ADS-B (CYQI)
08:38PM 42.9239 -64.5689 68° East 555 639 35,000  Level FlightAware ADS-B (CYQI)
08:38PM 42.9545 -64.4616 69° East 555 639 35,000  Level FlightAware ADS-B (CYQI)
08:39PM 42.9814 -64.3674 69° East 553 636 35,000  Level FlightAware ADS-B (CYQI)
08:39PM 43.0108 -64.2634 69° East 552 635 35,000  Level FlightAware ADS-B (CYQI)
08:40PM 43.0386 -64.1650 69° East 551 634 35,000  Level FlightAware ADS-B (CYQI)
08:40PM 43.0697 -64.0549 69° East 549 632 35,000  Level FlightAware ADS-B (CYQI)
08:42PM 43.1409 -63.8000 69° East 549 632 35,000  Level FlightAware ADS-B (CYQI)
08:42PM 43.1763 -63.6723 69° East 549 632 35,000  Level FlightAware ADS-B (CYQI)
08:43PM 43.2235 -63.5006 69° East 547 629 35,000  Level FlightAware ADS-B (CYQI)
08:44PM 43.2858 -63.2727 69° East 548 631 35,000  Level FlightAware ADS-B (CYQI)
08:45PM 43.3315 -63.1048 69° East 548 631 35,000  Level FlightAware ADS-B (CYQI)
08:47PM 43.4248 -62.7565 70° East 548 631 35,000  Level FlightAware ADS-B (CYQI)
08:49PM 43.5512 -62.2770 70° East 555 639 35,000  Level FlightAware ADS-B (CYQI)
08:50PM 43.5667 -62.1667 70° East 550 633 35,000  Level Moncton Center
08:51PM 43.6000 -61.9500 78° East 550 633 35,000  Level Moncton Center
08:52PM 43.6667 -61.7667 63° Northeast 550 633 35,000  Level Moncton Center
08:53PM 43.7167 -61.5500 72° East 560 644 35,000  Level Moncton Center
08:54PM 43.7667 -61.3500 71° East 560 644 35,000  Level Moncton Center
08:55PM 43.8167 -61.1500 71° East 560 644 35,000  Level Moncton Center
08:56PM 43.8667 -60.9500 71° East 560 644 35,000  Level Moncton Center
08:57PM 43.9167 -60.7500 71° East 560 644 35,000  Level Moncton Center
08:58PM 43.9667 -60.5167 73° East 560 644 35,000  Level Moncton Center
09:04PM 44.1770 -59.1830 73° East 557 641 35,000  Level FlightAware
09:05PM 44.2010 -58.9960 80° East 557 641 35,000  Level FlightAware
09:06PM 44.2280 -58.8010 79° East 557 641 35,000  Level FlightAware
09:07PM 44.2550 -58.5690 81° East 558 642 35,000  Level FlightAware
09:07PM 44.2630 -58.5130 79° East 558 642 35,000  Level FlightAware
09:09PM 44.2910 -58.2860 80° East 558 642 35,000  Level FlightAware
09:09PM 44.3050 -58.1710 80° East 559 643 35,000  Level FlightAware
09:10PM 44.3240 -58.0130 80° East 558 642 35,000  Level FlightAware
09:10PM 44.3390 -57.8850 81° East 558 642 35,000  Level FlightAware
09:11PM 44.3540 -57.7650 80° East 558 642 35,000  Level FlightAware
09:12PM 44.3840 -57.4960 81° East 561 646 35,000  Level FlightAware
09:13PM 44.3990 -57.3790 80° East 561 646 35,000  Level FlightAware
09:14PM 44.4170 -57.2330 80° East 561 646 35,000  Level FlightAware
09:15PM 44.4360 -57.0840 80° East 561 646 35,000  Level FlightAware
09:15PM 44.4500 -56.9740 80° East 561 646 35,000  Level FlightAware
09:16PM 44.4630 -56.8650 80° East 561 646 35,000  Level FlightAware
09:17PM 44.4860 -56.6820 80° East 561 646 35,000  Level FlightAware
09:18PM 44.5050 -56.5330 80° East 561 646 35,000  Level FlightAware
09:18PM 44.5190 -56.4230 80° East 561 646 35,000  Level FlightAware
09:19PM 44.5420 -56.2400 80° East 561 646 35,000  Level FlightAware
09:20PM 44.5560 -56.1300 80° East 561 646 35,000  Level FlightAware
09:20PM 44.5690 -56.0200 81° East 561 646 35,000  Level FlightAware
09:21PM 44.5830 -55.9110 80° East 561 646 35,000  Level FlightAware
09:22PM 44.5970 -55.8010 80° East 561 646 35,000  Level FlightAware
09:23PM 44.6230 -55.1930 86° East 533 613 35,000  Level FlightAware
09:24PM 44.6340 -55.0720 83° East 532 612 35,000  Level FlightAware
09:25PM 44.6530 -54.8660 83° East 531 611 35,000  Level FlightAware
09:25PM 44.6610 -54.7750 83° East 531 611 35,000  Level FlightAware
09:26PM 44.6790 -54.5610 83° East 530 610 35,000  Level FlightAware
09:27PM 44.6940 -54.3860 83° East 530 610 35,000  Level FlightAware
09:28PM 44.7090 -54.2130 83° East 529 609 35,000  Level FlightAware
09:29PM 44.7260 -54.0070 83° East 527 606 35,000  Level FlightAware
09:29PM 44.7350 -53.8970 83° East 525 604 35,000  Level FlightAware
09:30PM 44.7430 -53.7960 84° East 524 603 35,000  Level FlightAware
09:30PM 44.7510 -53.6980 83° East 524 603 35,000  Level FlightAware
09:31PM 44.7660 -53.4930 84° East 522 601 35,000  Level FlightAware
09:32PM 44.7800 -53.3070 84° East 520 598 35,000  Level FlightAware
09:33PM 44.7940 -53.1300 84° East 518 596 35,000  Level FlightAware
09:34PM 44.8070 -52.9550 84° East 519 597 35,000  Level FlightAware
09:35PM 44.8130 -52.8600 85° East 519 597 35,000  Level FlightAware
09:35PM 44.8220 -52.7390 84° East 520 598 35,000  Level FlightAware
09:36PM 44.8360 -52.5330 84° East 519 597 35,000  Level FlightAware
09:37PM 44.8480 -52.3580 84° East 521 600 35,000  Level FlightAware
09:38PM 44.8590 -52.1840 85° East 520 598 35,000  Level FlightAware
09:39PM 44.8730 -51.9710 85° East 521 600 35,000  Level FlightAware
09:40PM 44.8840 -51.7970 85° East 522 601 35,000  Level FlightAware
09:41PM 44.8950 -51.6200 85° East 524 603 35,000  Level FlightAware
09:42PM 44.9080 -51.4130 85° East 527 606 35,000  Level FlightAware
09:42PM 44.9140 -51.3120 85° East 527 606 35,000  Level FlightAware
09:43PM 44.9250 -51.1220 85° East 530 610 35,000  Level FlightAware
09:44PM 44.9300 -51.0230 86° East 530 610 35,000  Level FlightAware
09:44PM 44.9380 -50.9080 84° East 531 611 35,000  Level FlightAware
09:45PM 44.9440 -50.8120 85° East 531 611 35,000  Level FlightAware
09:45PM 44.9520 -50.7060 84° East 531 611 35,000  Level FlightAware
09:46PM 44.9600 -50.6010 84° East 531 611 35,000  Level FlightAware
09:46PM 44.9660 -50.5270 83° East 531 611 35,000  Level FlightAware
09:47PM 44.9790 -50.3510 84° East 531 611 35,000  Level FlightAware
09:48PM 44.9890 -50.2070 84° East 531 611 35,000  Level FlightAware
09:49PM 45.0000 -50.0660 84° East 531 611 35,000  Level FlightAware
09:50PM 45.0080 -49.9580 84° East 531 611 35,000  Level FlightAware
09:51PM 45.0210 -49.7810 84° East 531 611 35,000  Level FlightAware
09:51PM 45.0310 -49.6400 84° East 531 611 35,000  Level FlightAware
09:52PM 45.0370 -49.5670 83° East 531 611 35,000  Level FlightAware
09:53PM 45.0530 -49.3520 84° East 531 611 35,000  Level FlightAware
09:54PM 45.0600 -49.2470 85° East 531 611 35,000  Level FlightAware
09:54PM 45.0680 -49.1410 84° East 531 611 35,000  Level FlightAware
09:55PM 45.2833 -48.6833 84° East 530 610 35,000  Level Gander Center
09:56PM 45.3167 -48.5667 68° East 530 610 35,000  Level Gander Center
09:57PM 45.3667 -48.3667 70° East 540 621 35,000  Level Gander Center
09:58PM 45.4000 -48.1500 78° East 530 610 35,000  Level Gander Center
09:59PM 45.4667 -47.9667 63° Northeast 530 610 35,000  Level Gander Center
10:00PM 45.4833 -47.7833 83° East 520 598 35,000  Level Gander Center
10:01PM 45.5500 -47.5667 66° East 530 610 35,000  Level Gander Center
10:02PM 45.6000 -47.3833 69° East 530 610 35,000  Level Gander Center
10:04PM 45.6837 -47.0161 72° East  Level FlightAware Approximate
10:11PM 45.9817 -45.6538 72° East  Level FlightAware Approximate
10:12PM 46.0229 -45.4580 73° East  Level FlightAware Approximate
10:13PM 46.0638 -45.2620 73° East  Level FlightAware Approximate
10:14PM 46.1044 -45.0656 73° East  Level FlightAware Approximate
10:15PM 46.1446 -44.8689 73° East  Level FlightAware Approximate
10:16PM 46.1845 -44.6720 74° East  Level FlightAware Approximate
10:17PM 46.2241 -44.4748 74° East  Level FlightAware Approximate
10:18PM 46.2633 -44.2772 74° East  Level FlightAware Approximate
10:19PM 46.3022 -44.0794 74° East  Level FlightAware Approximate
10:20PM 46.3407 -43.8814 74° East  Level FlightAware Approximate
10:21PM 46.3783 -43.6828 75° East  Level FlightAware Approximate
10:22PM 46.4153 -43.4838 75° East  Level FlightAware Approximate
10:23PM 46.4519 -43.2845 75° East  Level FlightAware Approximate
10:24PM 46.4882 -43.0850 75° East  Level FlightAware Approximate
10:25PM 46.5242 -42.8853 75° East  Level FlightAware Approximate
10:26PM 46.5598 -42.6852 75° East  Level FlightAware Approximate
10:27PM 46.5951 -42.4850 76° East  Level FlightAware Approximate
10:28PM 46.6300 -42.2844 76° East  Level FlightAware Approximate
10:29PM 46.6645 -42.0836 76° East  Level FlightAware Approximate
10:30PM 46.6987 -41.8825 76° East  Level FlightAware Approximate
10:31PM 46.7326 -41.6812 76° East  Level FlightAware Approximate
10:32PM 46.7661 -41.4796 76° East  Level FlightAware Approximate
10:33PM 46.7992 -41.2778 76° East  Level FlightAware Approximate
10:34PM 46.8320 -41.0758 77° East  Level FlightAware Approximate
10:35PM 46.8645 -40.8735 77° East  Level FlightAware Approximate
10:36PM 46.8965 -40.6709 77° East  Level FlightAware Approximate
10:37PM 46.9283 -40.4681 77° East  Level FlightAware Approximate
10:38PM 46.9596 -40.2651 77° East  Level FlightAware Approximate
10:39PM 46.9907 -40.0618 77° East  Level FlightAware Approximate
10:40PM 47.0343 -39.8639 70° East  Level FlightAware Approximate
10:41PM 47.0832 -39.6680 70° East  Level FlightAware Approximate
10:42PM 47.1319 -39.4718 70° East  Level FlightAware Approximate
10:43PM 47.1801 -39.2752 70° East  Level FlightAware Approximate
10:44PM 47.2281 -39.0783 70° East  Level FlightAware Approximate
10:45PM 47.2757 -38.8810 70° East  Level FlightAware Approximate
10:46PM 47.3230 -38.6834 70° East  Level FlightAware Approximate
10:47PM 47.3699 -38.4854 71° East  Level FlightAware Approximate
10:48PM 47.4165 -38.2871 71° East  Level FlightAware Approximate
10:49PM 47.4627 -38.0884 71° East  Level FlightAware Approximate
10:50PM 47.5087 -37.8894 71° East  Level FlightAware Approximate
10:51PM 47.5542 -37.6900 71° East  Level FlightAware Approximate
10:52PM 47.5994 -37.4903 71° East  Level FlightAware Approximate
10:53PM 47.6443 -37.2902 72° East  Level FlightAware Approximate
10:54PM 47.6888 -37.0898 72° East  Level FlightAware Approximate
10:55PM 47.7330 -36.8890 72° East  Level FlightAware Approximate
10:56PM 47.7768 -36.6880 72° East  Level FlightAware Approximate
10:57PM 47.8203 -36.4865 72° East  Level FlightAware Approximate
10:58PM 47.8634 -36.2848 72° East  Level FlightAware Approximate
10:59PM 47.9061 -36.0827 72° East  Level FlightAware Approximate
11:00PM 47.9485 -35.8802 73° East  Level FlightAware Approximate
11:01PM 47.9906 -35.6775 73° East  Level FlightAware Approximate
11:02PM 48.0323 -35.4744 73° East  Level FlightAware Approximate
11:03PM 48.0736 -35.2709 73° East  Level FlightAware Approximate
11:04PM 48.1146 -35.0672 73° East  Level FlightAware Approximate
11:05PM 48.1552 -34.8631 73° East  Level FlightAware Approximate
11:06PM 48.1954 -34.6587 73° East  Level FlightAware Approximate
11:07PM 48.2353 -34.4540 74° East  Level FlightAware Approximate
11:08PM 48.2748 -34.2490 74° East  Level FlightAware Approximate
11:09PM 48.3140 -34.0436 74° East  Level FlightAware Approximate
11:10PM 48.3528 -33.8380 74° East  Level FlightAware Approximate
11:11PM 48.3912 -33.6320 74° East  Level FlightAware Approximate
11:12PM 48.4293 -33.4257 74° East  Level FlightAware Approximate
11:13PM 48.4669 -33.2191 75° East  Level FlightAware Approximate
11:14PM 48.5043 -33.0122 75° East  Level FlightAware Approximate
11:15PM 48.5412 -32.8050 75° East  Level FlightAware Approximate
11:16PM 48.5778 -32.5975 75° East  Level FlightAware Approximate
11:17PM 48.6140 -32.3897 75° East  Level FlightAware Approximate
11:18PM 48.6498 -32.1816 75° East  Level FlightAware Approximate
11:19PM 48.6852 -31.9732 75° East  Level FlightAware Approximate
11:20PM 48.7203 -31.7646 76° East  Level FlightAware Approximate
11:21PM 48.7550 -31.5556 76° East  Level FlightAware Approximate
11:22PM 48.7893 -31.3463 76° East  Level FlightAware Approximate
11:23PM 48.8233 -31.1368 76° East  Level FlightAware Approximate
11:24PM 48.8568 -30.9270 76° East  Level FlightAware Approximate
11:25PM 48.8900 -30.7169 76° East  Level FlightAware Approximate
11:26PM 48.9228 -30.5065 77° East  Level FlightAware Approximate
11:27PM 48.9552 -30.2958 77° East  Level FlightAware Approximate
11:28PM 48.9872 -30.0849 77° East  Level FlightAware Approximate
11:29PM 49.0184 -29.8735 77° East  Level FlightAware Approximate
11:30PM 49.0488 -29.6617 78° East  Level FlightAware Approximate
11:31PM 49.0788 -29.4497 78° East  Level FlightAware Approximate
11:32PM 49.1085 -29.2375 78° East  Level FlightAware Approximate
11:33PM 49.1378 -29.0250 78° East  Level FlightAware Approximate
11:34PM 49.1666 -28.8122 78° East  Level FlightAware Approximate
11:35PM 49.1951 -28.5992 78° East  Level FlightAware Approximate
11:36PM 49.2232 -28.3859 79° East  Level FlightAware Approximate
11:37PM 49.2509 -28.1724 79° East  Level FlightAware Approximate
11:38PM 49.2782 -27.9587 79° East  Level FlightAware Approximate
11:39PM 49.3051 -27.7447 79° East  Level FlightAware Approximate
11:40PM 49.3316 -27.5306 79° East  Level FlightAware Approximate
11:41PM 49.3577 -27.3161 79° East  Level FlightAware Approximate
11:42PM 49.3834 -27.1015 79° East  Level FlightAware Approximate
11:43PM 49.4088 -26.8866 80° East  Level FlightAware Approximate
11:44PM 49.4337 -26.6715 80° East  Level FlightAware Approximate
11:45PM 49.4582 -26.4562 80° East  Level FlightAware Approximate
11:46PM 49.4823 -26.2407 80° East  Level FlightAware Approximate
11:47PM 49.5060 -26.0249 80° East  Level FlightAware Approximate
11:48PM 49.5294 -25.8090 80° East  Level FlightAware Approximate
11:49PM 49.5523 -25.5928 81° East  Level FlightAware Approximate
11:50PM 49.5748 -25.3765 81° East  Level FlightAware Approximate
11:51PM 49.5969 -25.1600 81° East  Level FlightAware Approximate
11:52PM 49.6186 -24.9432 81° East  Level FlightAware Approximate
11:53PM 49.6399 -24.7263 81° East  Level FlightAware Approximate
11:54PM 49.6608 -24.5092 81° East  Level FlightAware Approximate
11:55PM 49.6813 -24.2918 82° East  Level FlightAware Approximate
11:56PM 49.7014 -24.0744 82° East  Level FlightAware Approximate
11:57PM 49.7210 -23.8567 82° East  Level FlightAware Approximate
11:58PM 49.7403 -23.6389 82° East  Level FlightAware Approximate
11:59PM 49.7592 -23.4209 82° East  Level FlightAware Approximate
12:00AM 49.7776 -23.2027 82° East  Level FlightAware Approximate
12:01AM 49.7957 -22.9843 83° East  Level FlightAware Approximate
12:02AM 49.8133 -22.7658 83° East  Level FlightAware Approximate
12:03AM 49.8305 -22.5472 83° East  Level FlightAware Approximate
12:04AM 49.8473 -22.3284 83° East  Level FlightAware Approximate
12:05AM 49.8637 -22.1094 83° East  Level FlightAware Approximate
12:06AM 49.8797 -21.8903 83° East  Level FlightAware Approximate
12:07AM 49.8952 -21.6710 84° East  Level FlightAware Approximate
12:08AM 49.9104 -21.4516 84° East  Level FlightAware Approximate
12:09AM 49.9251 -21.2321 84° East  Level FlightAware Approximate
12:10AM 49.9394 -21.0124 84° East  Level FlightAware Approximate
12:11AM 49.9534 -20.7926 84° East  Level FlightAware Approximate
12:12AM 49.9669 -20.5727 84° East  Level FlightAware Approximate
12:13AM 49.9799 -20.3527 85° East  Level FlightAware Approximate
12:14AM 49.9926 -20.1325 85° East  Level FlightAware Approximate
12:15AM 50.0243 -19.9205 64° Northeast  Level FlightAware Approximate
12:16AM 50.0853 -19.7205 65° Northeast  Level FlightAware Approximate
12:17AM 50.1458 -19.5200 65° Northeast  Level FlightAware Approximate
12:18AM 50.2060 -19.3190 65° Northeast  Level FlightAware Approximate
12:19AM 50.2659 -19.1175 65° Northeast  Level FlightAware Approximate
12:20AM 50.3254 -18.9155 65° Northeast  Level FlightAware Approximate
12:21AM 50.3846 -18.7129 65° Northeast  Level FlightAware Approximate
12:22AM 50.4434 -18.5099 65° Northeast  Level FlightAware Approximate
12:23AM 50.5019 -18.3064 66° East  Level FlightAware Approximate
12:24AM 50.5600 -18.1023 66° East  Level FlightAware Approximate
12:25AM 50.6177 -17.8978 66° East  Level FlightAware Approximate
12:26AM 50.6751 -17.6928 66° East  Level FlightAware Approximate
12:27AM 50.7322 -17.4872 66° East  Level FlightAware Approximate
12:28AM 50.7888 -17.2812 66° East  Level FlightAware Approximate
12:29AM 50.8451 -17.0746 67° East  Level FlightAware Approximate
12:30AM 50.9011 -16.8676 67° East  Level FlightAware Approximate
12:31AM 50.9566 -16.6601 67° East  Level FlightAware Approximate
12:32AM 51.0118 -16.4520 67° East  Level FlightAware Approximate
12:33AM 51.0667 -16.2435 67° East  Level FlightAware Approximate
12:34AM 51.1211 -16.0345 67° East  Level FlightAware Approximate
12:35AM 51.1752 -15.8250 68° East  Level FlightAware Approximate
12:36AM 51.2289 -15.6150 68° East  Level FlightAware Approximate
12:37AM 51.2822 -15.4045 68° East  Level FlightAware Approximate
12:38AM 51.3352 -15.1935 68° East  Level FlightAware Approximate
12:39AM 51.3875 -14.9819 70° East  Level FlightAware Approximate
12:40AM 51.4370 -14.7683 70° East  Level FlightAware Approximate
12:41AM 51.4863 -14.5544 69° East  Level FlightAware Approximate
12:42AM 51.5378 -14.3416 69° East  Level FlightAware Approximate
12:43AM 51.5890 -14.1283 69° East  Level FlightAware Approximate
12:44AM 51.6397 -13.9145 69° East  Level FlightAware Approximate
12:45AM 51.6901 -13.7002 69° East  Level FlightAware Approximate
12:46AM 51.7401 -13.4855 69° East  Level FlightAware Approximate
12:47AM 51.7896 -13.2703 69° East  Level FlightAware Approximate
12:48AM 51.8388 -13.0546 70° East  Level FlightAware Approximate
12:49AM 51.8876 -12.8385 70° East  Level FlightAware Approximate
12:50AM 51.9360 -12.6218 70° East  Level FlightAware Approximate
12:51AM 51.9848 -12.4052 69° East  Level FlightAware Approximate
12:52AM 52.0348 -12.1891 69° East  Level FlightAware Approximate
12:52AM 51.6830 -11.6250 77° East 513 590 35,000  Level FlightAware
12:53AM 52.0782 -11.9694 77° East  Level FlightAware Approximate
12:53AM 51.7850 -11.4050 53° Northeast 511 588 34,500  Level FlightAware
12:54AM 51.8310 -11.3050 53° Northeast 516 594 33,800 -1,380 Descending FlightAware
12:55AM 51.9160 -11.1190 53° Northeast 522 601 32,500 -1,620 Descending FlightAware
12:56AM 51.9940 -10.9460 54° Northeast 523 602 30,700 -2,340 Descending FlightAware
12:56AM 52.0540 -10.8150 53° Northeast 520 598 28,900 -2,400 Descending FlightAware
12:57AM 52.1270 -10.6530 54° Northeast 505 581 26,900 -2,820 Descending FlightAware
12:58AM 52.2120 -10.4610 54° Northeast 506 582 23,500 -3,120 Descending FlightAware
12:59AM 52.2620 -10.3490 54° Northeast 497 572 22,000 -2,460 Descending FlightAware
01:00AM 52.3190 -10.2210 54° Northeast 481 554 20,200 -2,520 Descending FlightAware
01:00AM 52.3580 -10.1300 55° Northeast 477 549 18,900 -2,700 Descending FlightAware
01:01AM 52.4050 -10.0210 55° Northeast 467 537 17,300 -2,400 Descending FlightAware
01:01AM 52.4640 -9.8820 55° Northeast 456 525 15,500 -2,220 Descending FlightAware
01:02AM 52.5050 -9.7850 55° Northeast 436 502 14,300 -2,280 Descending FlightAware
01:02AM 52.5400 -9.7030 55° Northeast 428 493 13,200 -2,220 Descending FlightAware
01:03AM 52.5950 -9.5720 55° Northeast 409 471 11,400 -2,280 Descending FlightAware
01:04AM 52.6320 -9.4840 55° Northeast 405 466 10,000 -2,280 Descending FlightAware
01:04AM 52.6450 -9.4530 55° Northeast 402 463 9,500 -2,460 Descending FlightAware
01:05AM 52.6850 -9.3520 57° Northeast 398 458 7,900 -2,340 Descending FlightAware
01:05AM 52.7090 -9.2840 60° Northeast 393 452 6,900 -1,980 Descending FlightAware
01:06AM 52.7290 -9.2270 60° Northeast 384 442 6,200 -2,280 Descending FlightAware
01:06AM 52.7650 -9.1220 60° Northeast 374 430 4,600 -1,800 Descending FlightAware
01:07AM 52.7920 -9.0430 61° Northeast 365 420 4,000 -600 Descending FlightAware
01:07AM 52.8140 -8.9790 60° Northeast 363 418 4,000  Level FlightAware
01:08AM 52.8430 -8.8930 61° Northeast 334 384 4,000  Level FlightAware
01:08AM 52.8530 -8.8580 65° Northeast 312 359 4,000 -360 Level FlightAware
01:09AM 52.8710 -8.7770 70° East 287 330 3,700 -660 Descending FlightAware
01:09AM 52.8800 -8.7340 71° East 275 316 3,400 -1,080 Descending FlightAware
01:09AM 52.8870 -8.7050 68° East 275 316 3,100 -480 Descending FlightAware
01:10AM 52.8960 -8.6610 71° East 275 316 3,100  Level FlightAware
01:13AM 52.7020 -8.9248 220° Southwest  Level Estimated
01:14AM 52.7020 -8.9248 138° Southeast  Level Estimated
01:15AM 52.7020 -8.9248 138° Southeast  Level Estimated
01:16AM 52.7020 -8.9248 138° Southeast  Level Estimated
01:17AM 52.7020 -8.9248 138° Southeast  Level Estimated
01:18AM 52.7020 -8.9248 138° Southeast  Level Estimated
01:19AM 52.7020 -8.9248 138° Southeast  Level Estimated
01:20AM 52.7020 -8.9248 138° Southeast  Level Estimated
01:21AM 52.7020 -8.9248 138° Southeast  Level Estimated
01:22AM 52.7020 -8.9248 138° Southeast  Level Estimated
01:23AM 52.7020 -8.9248 138° Southeast  Level Estimated
01:24AM 52.7020 -8.9248 138° Southeast  Level Estimated
01:25AM 52.7020 -8.9248 138° Southeast  Level Estimated